Time;durP1;ratioP1;P1;durP2;ratioP2;P2;SDS_P1;SDS_P2;PMS_P1;PMS_P2;Temp;Humidity;BMP_temperature;BMP_pressure;BME280_temperature;BME280_humidity;BME280_pressure;Samples;Min_cycle;Max_cycle;Signal;HPM_P1;HPM_P2
2023/05/30 00:01:19;;;;;;;;;;;;;;;19.23;66.67;102554.66;5049888;28;19913;-54
2023/05/30 00:03:45;;;;;;;;;;;;;;;19.40;65.60;102555.06;5059548;28;19913;-55
2023/05/30 00:06:11;;;;;;;;;;;;;;;19.16;68.18;102552.00;5057126;28;19958;-51
2023/05/30 00:08:36;;;;;;;;;;;;;;;19.22;67.43;102550.28;5056755;28;19921;-53
2023/05/30 00:11:02;;;;;;;;;;;;;;;19.23;67.67;102557.38;5058076;28;19913;-55
2023/05/30 00:13:28;;;;;;;;;;;;;;;18.94;68.63;102559.50;5062626;28;19913;-54
2023/05/30 00:15:54;;;;;;;;;;;;;;;19.32;67.19;102562.38;5057017;28;19917;-53
2023/05/30 00:18:19;;;;;;;;;;;;;;;19.14;67.74;102556.78;5060640;28;19940;-55
2023/05/30 00:20:45;;;;;;;;;;;;;;;19.01;69.26;102555.75;5054783;28;19940;-53
2023/05/30 00:23:10;;;;;;;;;;;;;;;19.15;68.48;102558.47;5054245;28;19980;-55
2023/05/30 00:25:37;;;;;;;;;;;;;;;19.23;68.11;102551.97;5056782;28;19916;-53
2023/05/30 00:28:02;;;;;;;;;;;;;;;19.21;68.38;102554.91;5055948;28;19972;-56
2023/05/30 00:30:31;;;;;;;;;;;;;;;18.92;69.77;102560.53;5041790;28;19947;-52
2023/05/30 00:33:01;;;;;;;;;;;;;;;18.96;70.13;102554.69;5036545;28;19913;-57
2023/05/30 00:35:27;;;;;;;;;;;;;;;18.83;70.49;102561.81;5057189;28;19976;-52
2023/05/30 00:37:52;;;;;;;;;;;;;;;18.68;72.02;102564.69;5039282;28;19971;-52
2023/05/30 00:40:17;;;;;;;;;;;;;;;18.95;71.00;102556.59;5057496;28;19984;-53
2023/05/30 00:42:43;;;;;;;;;;;;;;;18.69;71.87;102562.84;5040064;28;19997;-52
2023/05/30 00:45:09;;;;;;;;;;;;;;;18.76;71.84;102553.66;5041318;28;19924;-54
2023/05/30 00:47:35;;;;;;;;;;;;;;;18.47;73.52;102555.75;5056895;28;19917;-53
2023/05/30 00:50:01;;;;;;;;;;;;;;;18.69;72.34;102555.56;5055311;28;19924;-54
2023/05/30 00:52:27;;;;;;;;;;;;;;;18.77;71.86;102558.03;5059073;28;19980;-51
2023/05/30 00:54:53;;;;;;;;;;;;;;;18.78;72.21;102550.72;5056516;28;19916;-52
2023/05/30 00:57:19;;;;;;;;;;;;;;;18.54;73.68;102565.75;5036422;28;19935;-54
2023/05/30 00:59:45;;;;;;;;;;;;;;;18.43;74.05;102565.31;5038734;28;19913;-52
2023/05/30 01:02:11;;;;;;;;;;;;;;;18.54;74.28;102571.97;5056096;28;19999;-55
2023/05/30 01:04:36;;;;;;;;;;;;;;;18.62;73.83;102568.25;5056258;28;19913;-52
2023/05/30 01:07:04;;;;;;;;;;;;;;;18.59;73.86;102568.66;5055879;28;19980;-54
2023/05/30 01:09:29;;;;;;;;;;;;;;;18.27;75.86;102569.25;5024043;28;19917;-52
2023/05/30 01:12:01;;;;;;;;;;;;;;;18.23;77.19;102559.84;5014110;28;19989;-55
2023/05/30 01:14:44;;;;;;;;;;;;;;;18.38;76.28;102569.69;5016496;28;19913;-54
2023/05/30 01:17:18;;;;;;;;;;;;;;;18.15;78.07;102569.00;5016452;28;19913;-51
2023/05/30 01:19:46;;;;;;;;;;;;;;;18.42;76.43;102573.66;5013425;28;19936;-53
2023/05/30 01:22:28;;;;;;;;;;;;;;;18.46;75.92;102567.63;5018241;28;19921;-55
2023/05/30 01:25:12;;;;;;;;;;;;;;;18.45;75.80;102574.09;5015012;28;19936;-57
2023/05/30 01:27:56;;;;;;;;;;;;;;;18.27;76.34;102580.06;5021290;28;19955;-52
2023/05/30 01:30:24;;;;;;;;;;;;;;;18.30;76.89;102568.00;5021665;28;19913;-54
2023/05/30 01:32:49;;;;;;;;;;;;;;;18.23;76.32;102575.28;5013744;28;19913;-50
2023/05/30 01:35:22;;;;;;;;;;;;;;;18.39;76.34;102580.31;5015322;28;20010;-49
2023/05/30 01:37:47;;;;;;;;;;;;;;;18.38;76.52;102578.63;5016959;28;19960;-53
2023/05/30 01:40:15;;;;;;;;;;;;;;;18.19;76.64;102583.78;5014762;28;19925;-50
2023/05/30 01:42:42;;;;;;;;;;;;;;;18.17;77.02;102580.47;5017576;28;19914;-52
2023/05/30 01:45:15;;;;;;;;;;;;;;;18.26;77.32;102580.28;5019974;28;19913;-54
2023/05/30 01:47:44;;;;;;;;;;;;;;;18.11;77.54;102578.56;5013477;28;19918;-53
2023/05/30 01:50:15;;;;;;;;;;;;;;;18.33;77.01;102583.84;5016216;28;19989;-53
2023/05/30 01:52:43;;;;;;;;;;;;;;;18.31;77.03;102573.19;5017151;28;19928;-53
2023/05/30 01:55:10;;;;;;;;;;;;;;;18.42;76.56;102573.66;5013105;28;19913;-50
2023/05/30 01:57:39;;;;;;;;;;;;;;;18.40;76.67;102581.97;5014804;28;19917;-50
2023/05/30 02:00:05;;;;;;;;;;;;;;;18.26;76.94;102585.72;5016929;28;19914;-52
2023/05/30 02:02:38;;;;;;;;;;;;;;;18.48;76.72;102589.91;5014681;28;19952;-54
2023/05/30 02:05:03;;;;;;;;;;;;;;;18.51;76.39;102594.06;5016205;28;19918;-51
2023/05/30 02:07:29;;;;;;;;;;;;;;;18.49;75.95;102599.72;5015083;28;19969;-52
2023/05/30 02:09:55;;;;;;;;;;;;;;;18.40;77.15;102592.81;5049400;28;19916;-52
2023/05/30 02:12:20;;;;;;;;;;;;;;;18.43;76.91;102591.56;5063645;28;19917;-50
2023/05/30 02:14:47;;;;;;;;;;;;;;;18.38;77.24;102594.06;5064832;28;19920;-51
2023/05/30 02:17:13;;;;;;;;;;;;;;;18.41;77.42;102599.06;5039505;28;19928;-49
2023/05/30 02:19:39;;;;;;;;;;;;;;;18.46;76.89;102597.41;5064387;28;19913;-51
2023/05/30 02:22:05;;;;;;;;;;;;;;;18.47;76.47;102599.09;5061853;28;19920;-52
2023/05/30 02:24:31;;;;;;;;;;;;;;;18.57;76.35;102592.41;5044491;28;19912;-54
2023/05/30 02:26:57;;;;;;;;;;;;;;;18.43;76.83;102595.09;5043745;28;19924;-54
2023/05/30 02:29:23;;;;;;;;;;;;;;;18.27;77.86;102598.22;5061127;28;19917;-51
2023/05/30 02:31:48;;;;;;;;;;;;;;;18.17;79.02;102599.41;5057698;28;19913;-51
2023/05/30 02:34:14;;;;;;;;;;;;;;;18.27;78.43;102600.91;5041075;28;19917;-53
2023/05/30 02:36:39;;;;;;;;;;;;;;;18.17;79.36;102609.41;5043108;28;19923;-53
2023/05/30 02:39:07;;;;;;;;;;;;;;;17.90;81.78;102604.69;5063600;28;19923;-51
2023/05/30 02:41:36;;;;;;;;;;;;;;;18.01;81.79;102599.75;5046620;28;19919;-50
2023/05/30 02:44:03;;;;;;;;;;;;;;;18.29;79.79;102601.53;5060035;28;19909;-55
2023/05/30 02:46:29;;;;;;;;;;;;;;;18.25;79.82;102603.81;5060040;28;19975;-55
2023/05/30 02:48:55;;;;;;;;;;;;;;;18.21;80.66;102602.56;5044901;28;19913;-54
2023/05/30 02:51:20;;;;;;;;;;;;;;;18.28;80.05;102594.47;5042283;28;19917;-53
2023/05/30 02:53:46;;;;;;;;;;;;;;;18.24;80.28;102591.31;5046034;28;19979;-52
2023/05/30 02:56:13;;;;;;;;;;;;;;;18.33;79.43;102587.38;5041899;28;19921;-52
2023/05/30 02:59:03;;;;;;;;;;;;;;;18.35;79.73;102587.16;5043832;28;19913;-52
2023/05/30 03:01:47;;;;;;;;;;;;;;;18.35;79.85;102589.88;5041169;28;19921;-51
2023/05/30 03:04:13;;;;;;;;;;;;;;;18.36;80.02;102601.56;5039608;28;19923;-51
2023/05/30 03:06:42;;;;;;;;;;;;;;;18.19;81.36;102591.91;5039623;28;19917;-52
2023/05/30 03:09:15;;;;;;;;;;;;;;;18.34;80.41;102594.47;5057499;28;19929;-49
2023/05/30 03:11:42;;;;;;;;;;;;;;;18.32;80.58;102595.72;5039953;28;19982;-52
2023/05/30 03:14:09;;;;;;;;;;;;;;;18.24;80.98;102602.16;5040022;28;19952;-55
2023/05/30 03:16:36;;;;;;;;;;;;;;;18.53;79.20;102602.00;5042208;28;19913;-55
2023/05/30 03:19:05;;;;;;;;;;;;;;;18.51;78.85;102604.09;5044056;28;19919;-49
2023/05/30 03:21:32;;;;;;;;;;;;;;;18.81;77.28;102600.97;5045510;28;19913;-56
2023/05/30 03:23:59;;;;;;;;;;;;;;;18.64;77.15;102606.81;5040414;28;19913;-55
2023/05/30 03:26:30;;;;;;;;;;;;;;;18.85;76.14;102608.50;5043194;28;19917;-54
2023/05/30 03:28:55;;;;;;;;;;;;;;;18.86;76.10;102606.59;5040545;28;19917;-54
2023/05/30 03:31:23;;;;;;;;;;;;;;;18.87;76.59;102611.00;5040635;28;19921;-52
2023/05/30 03:33:49;;;;;;;;;;;;;;;18.82;76.65;102610.78;5043865;28;19913;-52
2023/05/30 03:36:16;;;;;;;;;;;;;;;18.95;75.79;102616.22;5041641;28;19924;-52
2023/05/30 03:38:43;;;;;;;;;;;;;;;18.81;76.55;102617.25;5042549;28;19913;-50
2023/05/30 03:41:08;;;;;;;;;;;;;;;18.74;77.29;102619.94;5042267;28;19927;-50
2023/05/30 03:43:33;;;;;;;;;;;;;;;18.91;76.18;102617.66;5045890;28;19935;-52
2023/05/30 03:45:59;;;;;;;;;;;;;;;18.96;75.63;102614.31;5058900;28;19916;-54
2023/05/30 03:48:24;;;;;;;;;;;;;;;19.09;74.89;102630.63;5039755;28;19921;-53
2023/05/30 03:50:49;;;;;;;;;;;;;;;19.11;74.50;102633.97;5042025;28;20710;-54
2023/05/30 03:53:15;;;;;;;;;;;;;;;19.29;73.74;102627.91;5055271;28;19913;-54
2023/05/30 03:55:41;;;;;;;;;;;;;;;19.36;73.29;102627.91;5038591;28;19920;-52
2023/05/30 03:58:06;;;;;;;;;;;;;;;19.31;73.18;102633.13;5038686;28;19944;-53
2023/05/30 04:00:32;;;;;;;;;;;;;;;19.41;72.86;102632.69;5057702;28;20372;-53
2023/05/30 04:03:00;;;;;;;;;;;;;;;19.30;73.03;102632.28;5057990;28;19913;-55
2023/05/30 04:05:26;;;;;;;;;;;;;;;19.13;73.34;102628.31;5042586;28;20350;-54
2023/05/30 04:07:52;;;;;;;;;;;;;;;19.23;73.00;102631.47;5037922;28;19924;-50
2023/05/30 04:10:18;;;;;;;;;;;;;;;19.39;72.25;102629.38;5038463;28;19956;-49
2023/05/30 04:12:43;;;;;;;;;;;;;;;19.23;72.12;102639.59;5037494;28;19917;-52
2023/05/30 04:15:10;;;;;;;;;;;;;;;19.53;71.41;102628.28;5035093;28;19940;-51
2023/05/30 04:17:36;;;;;;;;;;;;;;;19.55;71.21;102628.06;5032900;28;19921;-55
2023/05/30 04:20:08;;;;;;;;;;;;;;;19.26;72.35;102620.19;5037543;28;20001;-51
2023/05/30 04:22:35;;;;;;;;;;;;;;;19.40;72.24;102622.91;5034050;28;19924;-52
2023/05/30 04:25:01;;;;;;;;;;;;;;;19.58;71.39;102620.31;5037526;28;19973;-55
2023/05/30 04:27:26;;;;;;;;;;;;;;;19.76;70.68;102630.53;5036752;28;19981;-52
2023/05/30 04:29:53;;;;;;;;;;;;;;;19.90;69.84;102628.59;5037628;28;19917;-55
2023/05/30 04:32:20;;;;;;;;;;;;;;;19.70;69.97;102630.53;5035346;28;19945;-54
2023/05/30 04:34:46;;;;;;;;;;;;;;;19.81;69.92;102639.91;5040235;28;19936;-53
2023/05/30 04:37:17;;;;;;;;;;;;;;;19.67;70.24;102630.97;5039221;28;19913;-54
2023/05/30 04:39:44;;;;;;;;;;;;;;;19.80;69.61;102639.06;5037738;28;19913;-54
2023/05/30 04:42:09;;;;;;;;;;;;;;;19.89;69.19;102636.94;5035880;28;19913;-54
2023/05/30 04:44:37;;;;;;;;;;;;;;;19.54;70.48;102632.66;5037332;28;19913;-57
2023/05/30 04:47:05;;;;;;;;;;;;;;;19.87;69.42;102639.88;5035387;28;19917;-54
2023/05/30 04:49:30;;;;;;;;;;;;;;;20.05;68.17;102635.66;5036262;28;19928;-57
2023/05/30 04:51:56;;;;;;;;;;;;;;;19.82;68.87;102634.25;5033497;28;20385;-56
2023/05/30 04:54:22;;;;;;;;;;;;;;;19.91;67.87;102637.59;5042239;28;19984;-55
2023/05/30 04:56:47;;;;;;;;;;;;;;;19.70;69.27;102636.78;5037349;28;19936;-54
2023/05/30 04:59:15;;;;;;;;;;;;;;;19.37;70.66;102634.13;5035144;28;19956;-56
2023/05/30 05:01:41;;;;;;;;;;;;;;;19.82;68.61;102634.25;5040430;28;19921;-54
2023/05/30 05:04:06;;;;;;;;;;;;;;;19.80;67.97;102638.22;5042888;28;19914;-57
2023/05/30 05:06:32;;;;;;;;;;;;;;;19.71;68.95;102649.31;5040130;28;19917;-49
2023/05/30 05:08:57;;;;;;;;;;;;;;;19.31;70.50;102643.97;5048362;28;19921;-55
2023/05/30 05:11:22;;;;;;;;;;;;;;;18.97;72.55;102635.81;5053473;28;19916;-56
2023/05/30 05:13:48;;;;;;;;;;;;;;;19.42;71.34;102637.06;5053221;28;19912;-54
2023/05/30 05:16:13;;;;;;;;;;;;;;;19.61;70.50;102633.50;5057604;28;19917;-55
2023/05/30 05:18:39;;;;;;;;;;;;;;;19.43;71.05;102638.75;5059612;28;19924;-53
2023/05/30 05:21:06;;;;;;;;;;;;;;;19.69;69.82;102637.00;5056840;28;19912;-53
2023/05/30 05:23:32;;;;;;;;;;;;;;;19.65;68.77;102635.78;5057342;28;19940;-52
2023/05/30 05:25:57;;;;;;;;;;;;;;;19.73;69.71;102635.53;5057566;28;19917;-55
2023/05/30 05:28:23;;;;;;;;;;;;;;;19.76;69.47;102630.53;5056356;28;19951;-56
2023/05/30 05:30:48;;;;;;;;;;;;;;;19.66;69.89;102634.72;5057264;28;19920;-55
2023/05/30 05:33:15;;;;;;;;;;;;;;;19.60;69.91;102637.22;5056181;28;19928;-53
2023/05/30 05:35:41;;;;;;;;;;;;;;;19.63;69.82;102634.13;5060762;28;19980;-54
2023/05/30 05:38:06;;;;;;;;;;;;;;;19.70;69.23;102627.81;5058261;28;19940;-53
2023/05/30 05:40:32;;;;;;;;;;;;;;;19.61;68.63;102627.22;5057810;28;19913;-52
2023/05/30 05:42:57;;;;;;;;;;;;;;;19.50;69.21;102642.28;5054710;28;19940;-55
2023/05/30 05:45:22;;;;;;;;;;;;;;;19.68;68.65;102638.06;5062556;28;19924;-56
2023/05/30 05:47:48;;;;;;;;;;;;;;;19.74;68.36;102650.78;5065348;28;19959;-53
2023/05/30 05:50:13;;;;;;;;;;;;;;;19.63;68.61;102647.69;5062587;28;19927;-53
2023/05/30 05:52:40;;;;;;;;;;;;;;;19.28;69.66;102655.25;5060033;28;19917;-56
2023/05/30 05:55:06;;;;;;;;;;;;;;;19.23;69.17;102655.03;5062053;28;19909;-54
2023/05/30 05:57:31;;;;;;;;;;;;;;;19.50;68.09;102650.41;5062851;28;19952;-56
2023/05/30 05:59:56;;;;;;;;;;;;;;;20.06;65.79;102648.19;5062126;28;19913;-56
2023/05/30 06:02:22;;;;;;;;;;;;;;;19.88;65.67;102646.13;5060371;28;19920;-56
2023/05/30 06:04:47;;;;;;;;;;;;;;;20.14;64.87;102645.22;5060009;28;19913;-55
2023/05/30 06:07:13;;;;;;;;;;;;;;;19.98;64.79;102645.72;5062480;28;19924;-53
2023/05/30 06:09:38;;;;;;;;;;;;;;;20.02;64.95;102636.06;5059336;28;19917;-53
2023/05/30 06:12:05;;;;;;;;;;;;;;;19.73;66.04;102649.94;5061253;28;19984;-56
2023/05/30 06:14:30;;;;;;;;;;;;;;;19.78;66.08;102652.84;5059230;28;19904;-54
2023/05/30 06:16:56;;;;;;;;;;;;;;;20.13;64.96;102649.00;5059856;28;19934;-55
2023/05/30 06:19:21;;;;;;;;;;;;;;;20.44;63.67;102652.81;5064389;28;19947;-53
2023/05/30 06:21:47;;;;;;;;;;;;;;;20.58;62.77;102644.56;5064292;28;19920;-53
2023/05/30 06:24:12;;;;;;;;;;;;;;;20.47;62.81;102646.09;5059018;28;19920;-55
2023/05/30 06:26:38;;;;;;;;;;;;;;;20.58;62.99;102647.28;5058793;28;19917;-55
2023/05/30 06:29:03;;;;;;;;;;;;;;;20.45;62.12;102643.59;5056475;28;19984;-52
2023/05/30 06:31:29;;;;;;;;;;;;;;;20.86;61.08;102646.09;5061381;28;19924;-55
2023/05/30 06:33:54;;;;;;;;;;;;;;;20.85;60.95;102649.84;5056382;28;19923;-56
2023/05/30 06:36:20;;;;;;;;;;;;;;;20.91;60.48;102649.81;5061740;28;19948;-52
2023/05/30 06:38:45;;;;;;;;;;;;;;;20.87;60.46;102653.19;5068182;28;19920;-49
2023/05/30 06:41:11;;;;;;;;;;;;;;;20.85;60.40;102656.13;5058726;28;19913;-49
2023/05/30 06:43:36;;;;;;;;;;;;;;;21.08;59.14;102660.13;5066408;28;19928;-56
2023/05/30 06:46:02;;;;;;;;;;;;;;;21.27;58.96;102662.88;5063355;28;19992;-54
2023/05/30 06:48:27;;;;;;;;;;;;;;;21.29;58.68;102658.06;5065653;28;20363;-51
2023/05/30 06:50:53;;;;;;;;;;;;;;;21.33;58.71;102660.13;5066378;28;19919;-53
2023/05/30 06:53:18;;;;;;;;;;;;;;;21.14;58.20;102664.69;5063674;28;19984;-53
2023/05/30 06:55:44;;;;;;;;;;;;;;;21.66;57.43;102660.03;5035066;28;19936;-52
2023/05/30 06:58:09;;;;;;;;;;;;;;;21.60;57.32;102665.28;5040395;28;19992;-55
2023/05/30 07:00:35;;;;;;;;;;;;;;;21.73;57.18;102664.34;5055085;28;19936;-53
2023/05/30 07:03:01;;;;;;;;;;;;;;;22.17;56.25;102669.69;5057906;28;19913;-54
2023/05/30 07:05:27;;;;;;;;;;;;;;;21.62;56.53;102665.06;5060733;28;19912;-56
2023/05/30 07:07:53;;;;;;;;;;;;;;;22.09;55.43;102670.00;5064434;28;19927;-54
2023/05/30 07:10:18;;;;;;;;;;;;;;;21.33;56.57;102673.72;5059838;28;19952;-53
2023/05/30 07:12:44;;;;;;;;;;;;;;;21.26;56.36;102664.78;5057383;28;19916;-55
2023/05/30 07:15:12;;;;;;;;;;;;;;;21.60;55.78;102673.44;5060419;28;19924;-53
2023/05/30 07:17:38;;;;;;;;;;;;;;;21.56;56.40;102672.25;5057948;28;19959;-54
2023/05/30 07:20:04;;;;;;;;;;;;;;;22.11;55.78;102667.06;5057180;28;19916;-50
2023/05/30 07:22:30;;;;;;;;;;;;;;;22.33;54.34;102672.81;5059271;28;19983;-56
2023/05/30 07:24:55;;;;;;;;;;;;;;;22.16;55.08;102678.09;5057428;28;19920;-56
2023/05/30 07:27:20;;;;;;;;;;;;;;;22.87;53.35;102674.81;5057333;28;19925;-56
2023/05/30 07:29:46;;;;;;;;;;;;;;;22.33;54.00;102681.00;5058990;28;19941;-54
2023/05/30 07:32:12;;;;;;;;;;;;;;;22.71;52.77;102674.41;5057702;28;19962;-57
2023/05/30 07:34:38;;;;;;;;;;;;;;;23.04;52.35;102675.78;5056140;28;19979;-53
2023/05/30 07:37:04;;;;;;;;;;;;;;;22.91;52.17;102676.81;5057836;28;19913;-55
2023/05/30 07:39:30;;;;;;;;;;;;;;;22.67;52.50;102675.13;5057074;28;19988;-53
2023/05/30 07:41:55;;;;;;;;;;;;;;;22.89;51.94;102678.16;5056759;28;19917;-54
2023/05/30 07:44:21;;;;;;;;;;;;;;;23.04;52.33;102675.78;5056862;28;19916;-54
2023/05/30 07:46:47;;;;;;;;;;;;;;;22.95;52.50;102670.91;5058769;28;19917;-52
2023/05/30 07:49:13;;;;;;;;;;;;;;;22.97;51.98;102682.44;5060842;28;19986;-55
2023/05/30 07:51:38;;;;;;;;;;;;;;;22.60;52.49;102677.94;5058482;28;19923;-54
2023/05/30 07:54:03;;;;;;;;;;;;;;;22.92;52.24;102677.66;5054479;28;19917;-51
2023/05/30 07:56:29;;;;;;;;;;;;;;;23.16;51.57;102678.53;5056998;28;19980;-53
2023/05/30 07:58:54;;;;;;;;;;;;;;;22.49;54.19;102672.22;5058302;28;19919;-57
2023/05/30 08:01:20;;;;;;;;;;;;;;;22.89;52.66;102683.59;5059951;28;19924;-57
2023/05/30 08:03:45;;;;;;;;;;;;;;;23.22;51.27;102682.22;5059209;28;19928;-50
2023/05/30 08:06:11;;;;;;;;;;;;;;;23.34;50.63;102680.34;5058165;28;19913;-50
2023/05/30 08:08:37;;;;;;;;;;;;;;;23.15;51.09;102670.59;5053941;28;19917;-51
2023/05/30 08:11:03;;;;;;;;;;;;;;;22.83;51.87;102668.16;5058843;28;19917;-57
2023/05/30 08:13:28;;;;;;;;;;;;;;;22.92;51.48;102664.03;5057494;28;19980;-51
2023/05/30 08:15:54;;;;;;;;;;;;;;;22.92;51.87;102667.56;5058430;28;19913;-57
2023/05/30 08:18:21;;;;;;;;;;;;;;;22.72;52.71;102662.44;5061599;28;20061;-54
2023/05/30 08:20:46;;;;;;;;;;;;;;;22.89;51.62;102664.50;5058237;28;19959;-55
2023/05/30 08:23:12;;;;;;;;;;;;;;;22.81;51.86;102660.22;5059806;28;20303;-55
2023/05/30 08:25:42;;;;;;;;;;;;;;;22.54;52.09;102659.78;5054263;28;19920;-55
2023/05/30 08:28:07;;;;;;;;;;;;;;;22.83;51.31;102663.53;5058319;28;19924;-53
2023/05/30 08:30:33;;;;;;;;;;;;;;;22.85;51.83;102660.59;5057811;28;20023;-54
2023/05/30 08:32:59;;;;;;;;;;;;;;;23.17;51.32;102654.81;5057833;28;19928;-56
2023/05/30 08:35:24;;;;;;;;;;;;;;;23.50;50.18;102647.94;5060143;28;19960;-55
2023/05/30 08:37:50;;;;;;;;;;;;;;;23.63;50.26;102650.41;5061136;28;19912;-55
2023/05/30 08:40:15;;;;;;;;;;;;;;;23.75;49.59;102646.81;5057770;28;19948;-54
2023/05/30 08:42:41;;;;;;;;;;;;;;;23.62;49.63;102658.81;5059368;28;19913;-54
2023/05/30 08:45:07;;;;;;;;;;;;;;;23.85;49.44;102641.56;5055990;28;19968;-53
2023/05/30 08:47:35;;;;;;;;;;;;;;;23.92;48.58;102636.78;5059320;28;19924;-56
2023/05/30 08:50:04;;;;;;;;;;;;;;;24.12;48.73;102634.75;5055510;28;19913;-52
2023/05/30 08:52:31;;;;;;;;;;;;;;;24.08;48.34;102639.03;5055044;28;19924;-57
2023/05/30 08:55:09;;;;;;;;;;;;;;;24.27;48.45;102647.88;5061114;28;19920;-56
2023/05/30 08:57:57;;;;;;;;;;;;;;;24.25;48.64;102633.63;5054461;28;19916;-53
2023/05/30 09:00:23;;;;;;;;;;;;;;;24.16;49.07;102631.28;5063177;28;19975;-54
2023/05/30 09:02:55;;;;;;;;;;;;;;;24.03;49.14;102626.13;5059337;28;19917;-51
2023/05/30 09:05:20;;;;;;;;;;;;;;;24.08;48.71;102633.56;5061643;28;19920;-53
2023/05/30 09:07:47;;;;;;;;;;;;;;;23.91;49.71;102626.13;5060756;28;19917;-53
2023/05/30 09:10:15;;;;;;;;;;;;;;;24.31;49.03;102627.19;5055490;28;19916;-53
2023/05/30 09:12:41;;;;;;;;;;;;;;;24.75;48.57;102627.44;5059147;28;19913;-56
2023/05/30 09:15:07;;;;;;;;;;;;;;;24.86;47.98;102627.56;5056748;28;19913;-52
2023/05/30 09:17:33;;;;;;;;;;;;;;;24.74;47.31;102630.38;5055392;28;19913;-54
2023/05/30 09:19:59;;;;;;;;;;;;;;;24.95;48.04;102631.56;5055378;28;19904;-57
2023/05/30 09:22:26;;;;;;;;;;;;;;;24.75;48.10;102627.44;5063130;28;19945;-55
2023/05/30 09:25:00;;;;;;;;;;;;;;;24.76;48.08;102617.28;5055989;28;19976;-56
2023/05/30 09:27:25;;;;;;;;;;;;;;;24.85;47.52;102618.56;5058741;28;19921;-55
2023/05/30 09:29:51;;;;;;;;;;;;;;;24.85;47.95;102614.97;5057495;28;19924;-56
2023/05/30 09:32:16;;;;;;;;;;;;;;;24.99;47.70;102623.66;5053413;28;19980;-55
2023/05/30 09:34:51;;;;;;;;;;;;;;;25.42;46.12;102615.81;5062697;28;19912;-54
2023/05/30 09:37:16;;;;;;;;;;;;;;;25.69;45.88;102607.66;5057074;28;19913;-53
2023/05/30 09:39:46;;;;;;;;;;;;;;;25.69;45.28;102607.66;5055849;28;19948;-55
2023/05/30 09:42:11;;;;;;;;;;;;;;;26.63;43.82;102610.28;5062882;28;19912;-56
2023/05/30 09:44:51;;;;;;;;;;;;;;;26.71;43.37;102616.38;5054950;28;19935;-53
2023/05/30 09:47:16;;;;;;;;;;;;;;;27.57;41.55;102619.97;5062955;28;19916;-57
2023/05/30 09:49:42;;;;;;;;;;;;;;;28.37;41.14;102612.47;5057871;28;19996;-55
2023/05/30 09:52:07;;;;;;;;;;;;;;;29.13;39.46;102620.97;5052879;28;19917;-53
2023/05/30 09:54:33;;;;;;;;;;;;;;;29.12;39.37;102613.00;5057924;28;19948;-55
2023/05/30 09:57:01;;;;;;;;;;;;;;;29.52;38.92;102618.69;5055686;28;19913;-53
2023/05/30 09:59:27;;;;;;;;;;;;;;;30.29;36.37;102611.91;5055680;28;19940;-58
2023/05/30 10:01:52;;;;;;;;;;;;;;;30.10;36.96;102615.34;5055235;28;19913;-55
2023/05/30 10:04:19;;;;;;;;;;;;;;;30.39;35.87;102614.56;5057327;28;19912;-54
2023/05/30 10:06:49;;;;;;;;;;;;;;;31.21;34.96;102625.16;5057488;28;19917;-51
2023/05/30 10:09:14;;;;;;;;;;;;;;;30.95;35.65;102612.44;5054776;28;19971;-55
2023/05/30 10:11:41;;;;;;;;;;;;;;;31.78;34.87;102618.94;5058175;28;19923;-55
2023/05/30 10:14:07;;;;;;;;;;;;;;;32.34;33.64;102614.53;5062518;28;19920;-57
2023/05/30 10:16:34;;;;;;;;;;;;;;;32.46;32.54;102623.16;5058183;28;19920;-51
2023/05/30 10:19:02;;;;;;;;;;;;;;;33.14;32.33;102631.09;5056692;28;19936;-56
2023/05/30 10:21:29;;;;;;;;;;;;;;;33.84;31.42;102619.13;5063313;28;19917;-57
2023/05/30 10:23:56;;;;;;;;;;;;;;;33.81;30.79;102617.78;5057879;28;19924;-57
2023/05/30 10:26:23;;;;;;;;;;;;;;;33.82;31.51;102615.84;5060093;28;19913;-54
2023/05/30 10:28:50;;;;;;;;;;;;;;;33.74;31.19;102609.88;5059176;28;19919;-57
2023/05/30 10:31:16;;;;;;;;;;;;;;;34.51;30.72;102619.47;5053816;28;19927;-58
2023/05/30 10:33:45;;;;;;;;;;;;;;;34.59;30.32;102604.81;5061484;28;19913;-58
2023/05/30 10:36:12;;;;;;;;;;;;;;;34.60;30.01;102609.22;5060303;28;19913;-57
2023/05/30 10:38:46;;;;;;;;;;;;;;;34.98;29.99;102616.28;5058227;28;19940;-55
2023/05/30 10:41:20;;;;;;;;;;;;;;;35.12;29.71;102616.19;5056603;28;19920;-57
2023/05/30 10:44:03;;;;;;;;;;;;;;;35.20;28.94;102612.63;5056963;28;19923;-53
2023/05/30 10:46:43;;;;;;;;;;;;;;;35.50;28.68;102615.59;5056552;28;19940;-55
2023/05/30 10:49:18;;;;;;;;;;;;;;;35.96;28.28;102606.97;5062923;28;19913;-54
2023/05/30 10:52:02;;;;;;;;;;;;;;;36.35;27.44;102609.91;5057572;28;19916;-56
2023/05/30 10:54:30;;;;;;;;;;;;;;;36.86;26.83;102607.28;5055347;28;19944;-54
2023/05/30 10:56:56;;;;;;;;;;;;;;;36.63;26.00;102617.91;5059363;28;19913;-58
2023/05/30 10:59:22;;;;;;;;;;;;;;;37.25;25.41;102608.09;5057482;28;19939;-55
2023/05/30 11:02:01;;;;;;;;;;;;;;;37.85;24.93;102605.22;5059537;28;19913;-58
2023/05/30 11:04:34;;;;;;;;;;;;;;;37.72;25.39;102601.56;5053650;28;19936;-58
2023/05/30 11:07:04;;;;;;;;;;;;;;;38.05;24.88;102604.72;5056633;28;19917;-56
2023/05/30 11:09:30;;;;;;;;;;;;;;;38.69;24.34;102603.38;5058260;28;19940;-55
2023/05/30 11:11:56;;;;;;;;;;;;;;;38.65;25.20;102605.22;5060650;28;19951;-58
2023/05/30 11:14:29;;;;;;;;;;;;;;;38.75;25.44;102597.53;5057327;28;19917;-57
2023/05/30 11:16:55;;;;;;;;;;;;;;;38.21;24.94;102596.50;5057143;28;19948;-57
2023/05/30 11:19:24;;;;;;;;;;;;;;;39.15;23.47;102600.47;5056727;28;19909;-58
2023/05/30 11:21:58;;;;;;;;;;;;;;;39.35;23.43;102594.25;5057363;28;19923;-54
2023/05/30 11:24:25;;;;;;;;;;;;;;;39.66;23.53;102584.38;5059865;28;19955;-57
2023/05/30 11:26:54;;;;;;;;;;;;;;;39.71;24.50;102581.34;5059078;28;19942;-58
2023/05/30 11:29:29;;;;;;;;;;;;;;;39.80;23.75;102584.00;5057175;28;19917;-57
2023/05/30 11:31:55;;;;;;;;;;;;;;;40.09;22.79;102588.41;5058785;28;19979;-59
2023/05/30 11:34:21;;;;;;;;;;;;;;;40.22;23.20;102589.13;5058571;28;19913;-52
2023/05/30 11:36:46;;;;;;;;;;;;;;;40.37;23.04;102565.16;5057703;28;19909;-55
2023/05/30 11:39:12;;;;;;;;;;;;;;;39.34;23.68;102567.44;5056857;28;19917;-55
2023/05/30 11:41:37;;;;;;;;;;;;;;;40.11;22.81;102583.25;5055104;28;19913;-57
2023/05/30 11:44:03;;;;;;;;;;;;;;;40.26;22.41;102580.84;5054395;28;19920;-53
2023/05/30 11:46:28;;;;;;;;;;;;;;;40.59;23.27;102576.88;5058872;28;19967;-54
2023/05/30 11:48:57;;;;;;;;;;;;;;;40.90;22.47;102583.66;5057834;28;19920;-57
2023/05/30 11:51:23;;;;;;;;;;;;;;;41.70;21.26;102582.56;5057416;28;19939;-55
2023/05/30 11:53:48;;;;;;;;;;;;;;;41.13;20.93;102580.16;5054551;28;19936;-57
2023/05/30 11:56:14;;;;;;;;;;;;;;;42.04;20.36;102573.59;5058493;28;19913;-59
2023/05/30 11:58:40;;;;;;;;;;;;;;;42.61;19.92;102573.78;5058660;28;19949;-59
2023/05/30 12:01:06;;;;;;;;;;;;;;;42.92;19.85;102563.44;5054631;28;19912;-58
2023/05/30 12:03:32;;;;;;;;;;;;;;;42.51;20.12;102568.81;5059939;28;19971;-58
2023/05/30 12:06:09;;;;;;;;;;;;;;;43.07;20.19;102570.06;5059494;28;19920;-57
2023/05/30 12:08:38;;;;;;;;;;;;;;;43.16;21.46;102561.34;5055400;28;19928;-58
2023/05/30 12:11:04;;;;;;;;;;;;;;;42.95;21.61;102559.84;5053306;28;19999;-58
2023/05/30 12:13:30;;;;;;;;;;;;;;;42.91;21.25;102559.00;5061069;28;19920;-60
2023/05/30 12:15:55;;;;;;;;;;;;;;;43.04;21.14;102561.56;5056474;28;19956;-59
2023/05/30 12:18:21;;;;;;;;;;;;;;;43.25;20.90;102553.41;5056300;28;19940;-58
2023/05/30 12:20:47;;;;;;;;;;;;;;;43.21;20.93;102563.81;5056357;28;19954;-60
2023/05/30 12:23:13;;;;;;;;;;;;;;;43.25;21.18;102544.97;5054177;28;19947;-58
2023/05/30 12:25:39;;;;;;;;;;;;;;;43.11;21.12;102550.41;5056649;28;19912;-58
2023/05/30 12:28:05;;;;;;;;;;;;;;;43.35;21.35;102546.31;5054059;28;19913;-59
2023/05/30 12:30:34;;;;;;;;;;;;;;;43.05;21.25;102552.75;5058899;28;19917;-56
2023/05/30 12:33:11;;;;;;;;;;;;;;;43.54;21.25;102541.69;5060747;28;19935;-58
2023/05/30 12:35:38;;;;;;;;;;;;;;;43.37;21.63;102537.47;5061775;28;20005;-59